createdAt,value
2018-08-22T00:00:02.103Z,18.74
2018-08-22T00:05:05.783Z,18.58
2018-08-22T00:10:09.646Z,18.51
2018-08-22T00:15:13.303Z,18.45
2018-08-22T00:20:16.996Z,18.60
2018-08-22T00:25:21.136Z,18.58
2018-08-22T00:30:29.457Z,18.35
2018-08-22T00:35:33.086Z,18.28
2018-08-22T00:40:36.631Z,18.21
2018-08-22T00:45:40.189Z,18.28
2018-08-22T00:50:43.724Z,18.19
2018-08-22T00:55:47.756Z,18.03
2018-08-22T01:00:51.385Z,18.07
2018-08-22T01:05:54.916Z,18.16
2018-08-22T01:10:58.437Z,18.14
2018-08-22T01:16:02.021Z,18.08
2018-08-22T01:21:06.196Z,17.98
2018-08-22T01:26:09.875Z,17.87
2018-08-22T01:31:13.561Z,17.86
2018-08-22T01:36:17.246Z,17.80
2018-08-22T01:41:21.593Z,17.81
2018-08-22T01:46:25.248Z,17.88
2018-08-22T01:51:28.846Z,18.02
2018-08-22T01:56:32.634Z,18.17
2018-08-22T02:01:36.173Z,18.26
2018-08-22T02:06:39.725Z,18.33
2018-08-22T02:11:43.279Z,18.42
2018-08-22T02:16:46.826Z,18.55
2018-08-22T02:21:50.384Z,18.54
2018-08-22T02:26:53.913Z,18.65
2018-08-22T02:31:57.535Z,18.70
2018-08-22T02:37:01.120Z,18.73
2018-08-22T02:42:05.156Z,18.79
2018-08-22T02:47:08.679Z,18.76
2018-08-22T02:52:12.167Z,18.80
2018-08-22T02:57:15.998Z,18.85
2018-08-22T03:02:19.605Z,18.89
2018-08-22T03:07:23.138Z,18.87
2018-08-22T03:12:27.225Z,18.83
2018-08-22T03:17:30.754Z,18.85
2018-08-22T03:22:34.521Z,18.82
2018-08-22T03:27:38.223Z,18.92
2018-08-22T03:32:41.753Z,18.94
2018-08-22T03:37:45.306Z,18.98
2018-08-22T03:42:48.809Z,19.01
2018-08-22T03:47:52.354Z,18.92
2018-08-22T03:52:55.826Z,18.92
2018-08-22T03:58:00.041Z,18.98
2018-08-22T04:03:03.524Z,19.09
2018-08-22T04:08:07.370Z,19.10
2018-08-22T04:13:11.588Z,19.05
2018-08-22T04:18:15.123Z,18.97
2018-08-22T04:23:18.926Z,19.01
2018-08-22T04:28:22.479Z,19.10
2018-08-22T04:33:26.078Z,19.09
2018-08-22T04:38:29.893Z,19.01
2018-08-22T04:43:34.189Z,18.93
2018-08-22T04:48:37.765Z,18.98
2018-08-22T04:53:41.313Z,19.03
2018-08-22T04:58:44.866Z,19.00
2018-08-22T05:03:48.500Z,19.09
2018-08-22T05:08:53.277Z,19.20
2018-08-22T05:13:56.760Z,19.23
2018-08-22T05:19:00.324Z,19.37
2018-08-22T05:24:03.868Z,19.51
2018-08-22T05:29:07.426Z,19.62
2018-08-22T05:34:11.162Z,19.70
2018-08-22T05:39:14.782Z,19.72
2018-08-22T05:44:18.626Z,19.55
2018-08-22T05:49:22.241Z,19.46
2018-08-22T05:54:25.833Z,19.42
2018-08-22T05:59:29.477Z,19.63
2018-08-22T06:04:33.107Z,19.71
2018-08-22T06:09:36.641Z,19.97
2018-08-22T06:14:40.485Z,20.21
2018-08-22T06:19:44.055Z,20.49
2018-08-22T06:24:47.807Z,20.72
2018-08-22T06:29:51.347Z,20.96
2018-08-22T06:34:54.839Z,21.38
2018-08-22T06:39:58.381Z,21.57
2018-08-22T06:45:01.918Z,21.64
2018-08-22T06:50:05.609Z,21.80
2018-08-22T06:55:09.316Z,21.75
2018-08-22T07:00:14.938Z,21.90
2018-08-22T07:05:18.458Z,22.22
2018-08-22T07:10:22.024Z,22.24
2018-08-22T07:15:25.637Z,22.71
2018-08-22T07:20:29.352Z,23.02
2018-08-22T07:25:32.918Z,23.09
2018-08-22T07:30:36.865Z,23.36
2018-08-22T07:35:40.600Z,23.66
2018-08-22T07:40:44.182Z,23.73
2018-08-22T07:45:47.826Z,24.05
2018-08-22T07:50:51.662Z,24.08
2018-08-22T07:55:55.222Z,24.03
2018-08-22T08:00:58.888Z,24.34
2018-08-22T08:06:02.416Z,24.61
2018-08-22T08:11:06.177Z,24.91
2018-08-22T08:16:09.761Z,24.94
2018-08-22T08:21:14.128Z,25.30
2018-08-22T08:26:17.765Z,25.17
2018-08-22T08:31:21.962Z,25.47
2018-08-22T08:36:25.520Z,25.53
2018-08-22T08:41:29.090Z,25.62
2018-08-22T08:46:32.652Z,25.96
2018-08-22T08:51:42.164Z,26.07
2018-08-22T08:56:45.733Z,26.34
2018-08-22T09:01:49.228Z,26.22
2018-08-22T09:06:52.761Z,26.45
2018-08-22T09:11:59.553Z,26.73
2018-08-22T09:17:03.113Z,27.04
2018-08-22T09:22:06.797Z,27.31
2018-08-22T09:27:10.337Z,27.18
2018-08-22T09:32:13.841Z,27.60
2018-08-22T09:37:17.592Z,27.61
2018-08-22T09:42:21.151Z,27.75
2018-08-22T09:47:25.034Z,27.87
2018-08-22T09:52:28.563Z,27.80
2018-08-22T09:57:32.347Z,28.05
2018-08-22T10:02:36.014Z,28.29
2018-08-22T10:07:39.548Z,28.40
2018-08-22T10:12:43.299Z,28.19
2018-08-22T10:17:46.848Z,28.24
2018-08-22T10:22:50.360Z,28.69
2018-08-22T10:27:54.206Z,28.47
2018-08-22T10:32:57.791Z,28.67
2018-08-22T10:38:01.276Z,28.89
2018-08-22T10:43:04.789Z,28.86
2018-08-22T10:48:08.380Z,29.33
2018-08-22T10:53:21.277Z,29.50
2018-08-22T10:58:24.813Z,29.38
2018-08-22T11:03:28.894Z,29.59
2018-08-22T11:08:32.480Z,29.64
2018-08-22T11:13:36.015Z,29.36
2018-08-22T11:18:39.941Z,29.67
2018-08-22T11:24:09.148Z,29.72
2018-08-22T11:29:24.142Z,29.75
2018-08-22T11:34:38.927Z,29.88
2018-08-22T11:39:44.884Z,30.08
2018-08-22T11:44:48.421Z,30.27
2018-08-22T11:49:52.080Z,30.08
2018-08-22T11:55:11.671Z,30.30
2018-08-22T12:00:26.764Z,30.51
2018-08-22T12:05:30.425Z,30.23
2018-08-22T12:10:34.037Z,30.28
2018-08-22T12:15:37.645Z,29.92
2018-08-22T12:20:41.281Z,29.60
2018-08-22T12:25:45.329Z,29.70
2018-08-22T12:30:48.891Z,30.29
2018-08-22T12:35:53.326Z,30.34
2018-08-22T12:40:56.883Z,30.72
2018-08-22T12:46:00.413Z,31.19
2018-08-22T12:51:04.564Z,31.28
2018-08-22T12:56:08.123Z,31.26
2018-08-22T13:01:11.670Z,31.39
2018-08-22T13:06:15.922Z,31.08
2018-08-22T13:11:19.471Z,31.02
2018-08-22T13:16:23.018Z,30.88
2018-08-22T13:21:26.511Z,30.57
2018-08-22T13:26:30.350Z,30.95
2018-08-22T13:31:34.046Z,31.04
2018-08-22T13:36:37.492Z,31.39
2018-08-22T13:41:41.013Z,31.76
2018-08-22T13:46:44.626Z,31.30
2018-08-22T13:51:48.274Z,31.09
2018-08-22T13:56:51.810Z,30.97
2018-08-22T14:01:55.540Z,30.90
2018-08-22T14:06:59.862Z,31.03
2018-08-22T14:12:03.397Z,31.19
2018-08-22T14:17:07.242Z,31.54
2018-08-22T14:22:10.813Z,31.87
2018-08-22T14:27:14.635Z,31.90
2018-08-22T14:32:18.222Z,31.84
2018-08-22T14:37:21.716Z,32.18
2018-08-22T14:42:25.824Z,32.04
2018-08-22T14:47:30.193Z,31.58
2018-08-22T14:52:33.778Z,31.13
2018-08-22T14:57:37.315Z,31.23
2018-08-22T15:02:41.194Z,31.55
2018-08-22T15:07:44.566Z,31.61
2018-08-22T15:12:48.724Z,31.67
2018-08-22T15:17:52.144Z,31.67
2018-08-22T15:22:55.689Z,31.88
2018-08-22T15:27:59.475Z,32.07
2018-08-22T15:33:03.575Z,31.89
2018-08-22T15:38:07.159Z,31.63
2018-08-22T15:43:11.642Z,31.55
2018-08-22T15:48:15.281Z,31.51
2018-08-22T15:53:18.943Z,31.47
2018-08-22T15:58:22.533Z,31.59
2018-08-22T16:03:26.797Z,31.61
2018-08-22T16:08:31.733Z,31.50
2018-08-22T16:13:35.521Z,31.59
2018-08-22T16:18:39.353Z,31.33
2018-08-22T16:23:42.938Z,31.18
2018-08-22T16:28:54.937Z,31.06
2018-08-22T16:33:59.189Z,30.95
2018-08-22T16:39:02.935Z,30.88
2018-08-22T16:44:06.826Z,30.86
2018-08-22T16:49:10.403Z,30.73
2018-08-22T16:54:14.121Z,30.71
2018-08-22T16:59:17.764Z,30.68
2018-08-22T17:04:21.339Z,30.62
2018-08-22T17:09:24.914Z,30.56
2018-08-22T17:14:28.782Z,30.81
2018-08-22T17:19:32.269Z,31.41
2018-08-22T17:24:35.818Z,31.70
2018-08-22T17:29:39.533Z,31.66
2018-08-22T17:34:43.081Z,31.69
2018-08-22T17:39:46.623Z,31.66
2018-08-22T17:44:50.612Z,31.55
2018-08-22T17:50:06.972Z,31.25
2018-08-22T17:55:10.936Z,30.73
2018-08-22T18:00:17.237Z,30.20
2018-08-22T18:05:20.809Z,29.64
2018-08-22T18:10:24.646Z,29.23
2018-08-22T18:15:28.179Z,28.88
2018-08-22T18:20:32.912Z,28.53
2018-08-22T18:25:40.561Z,28.26
2018-08-22T18:30:44.534Z,27.97
2018-08-22T18:35:48.084Z,27.63
2018-08-22T18:41:02.993Z,27.45
2018-08-22T18:46:07.876Z,27.32
2018-08-22T18:51:11.537Z,27.20
2018-08-22T18:56:17.327Z,27.13
2018-08-22T19:01:21.450Z,27.00
2018-08-22T19:06:25.122Z,26.95
2018-08-22T19:11:28.680Z,26.80
2018-08-22T19:16:37.428Z,26.66
2018-08-22T19:21:40.969Z,26.43
2018-08-22T19:26:44.549Z,26.33
2018-08-22T19:31:53.537Z,26.24
2018-08-22T19:36:57.331Z,26.14
2018-08-22T19:42:00.895Z,26.05
2018-08-22T19:47:04.453Z,25.95
2018-08-22T19:52:07.943Z,25.83
2018-08-22T19:57:12.234Z,25.71
2018-08-22T20:02:16.090Z,25.56
2018-08-22T20:07:19.673Z,25.50
2018-08-22T20:12:33.623Z,25.38
2018-08-22T20:17:37.182Z,25.28
2018-08-22T20:22:45.870Z,25.19
2018-08-22T20:27:49.413Z,25.08
2018-08-22T20:32:59.447Z,24.97
2018-08-22T20:38:04.529Z,24.92
2018-08-22T20:43:30.423Z,24.83
2018-08-22T20:48:33.973Z,24.67
2018-08-22T20:53:37.732Z,24.55
2018-08-22T20:58:42.772Z,24.50
2018-08-22T21:03:46.426Z,24.48
2018-08-22T21:08:51.238Z,24.42
2018-08-22T21:13:54.971Z,24.34
2018-08-22T21:18:58.572Z,24.18
2018-08-22T21:24:02.085Z,24.04
2018-08-22T21:29:05.847Z,23.97
2018-08-22T21:34:14.847Z,23.92
2018-08-22T21:39:23.900Z,23.94
2018-08-22T21:44:27.874Z,23.86
2018-08-22T21:49:31.509Z,23.78
2018-08-22T21:54:35.967Z,23.72
2018-08-22T21:59:39.701Z,23.61
2018-08-22T22:04:43.481Z,23.57
2018-08-22T22:09:47.061Z,23.48
2018-08-22T22:14:50.723Z,23.43
2018-08-22T22:19:54.298Z,23.36
2018-08-22T22:25:04.136Z,23.28
2018-08-22T22:30:09.998Z,23.24
2018-08-22T22:35:15.238Z,23.06
2018-08-22T22:40:21.373Z,23.00
2018-08-22T22:45:24.869Z,23.04
2018-08-22T22:50:28.443Z,22.96
2018-08-22T22:55:32.152Z,22.83
2018-08-22T23:00:37.401Z,22.75
2018-08-22T23:05:41.203Z,22.71
2018-08-22T23:10:44.731Z,22.58
2018-08-22T23:15:48.222Z,22.56
2018-08-22T23:20:52.306Z,22.62
2018-08-22T23:25:58.779Z,22.67
2018-08-22T23:31:02.364Z,22.65
2018-08-22T23:36:06.031Z,22.61
2018-08-22T23:41:09.737Z,22.54
2018-08-22T23:46:14.252Z,22.54
2018-08-22T23:51:17.941Z,22.53
2018-08-22T23:56:25.125Z,22.65
